createdAt,value
2018-12-16T00:01:33.584Z,30.35
2018-12-16T00:04:01.265Z,29.80
2018-12-16T00:06:29.280Z,29.00
2018-12-16T00:08:56.618Z,28.60
2018-12-16T00:11:24.276Z,30.90
2018-12-16T00:13:51.592Z,28.87
2018-12-16T00:16:18.982Z,27.80
2018-12-16T00:18:46.342Z,30.95
2018-12-16T00:21:14.222Z,31.48
2018-12-16T00:23:41.898Z,29.77
2018-12-16T00:26:09.544Z,28.65
2018-12-16T00:28:37.531Z,29.00
2018-12-16T00:31:04.964Z,28.73
2018-12-16T00:33:32.731Z,27.73
2018-12-16T00:36:00.419Z,28.52
2018-12-16T00:38:28.380Z,29.87
2018-12-16T00:40:56.047Z,31.57
2018-12-16T00:43:24.013Z,30.68
2018-12-16T00:45:51.672Z,29.90
2018-12-16T00:48:19.027Z,30.93
2018-12-16T00:50:46.898Z,30.00
2018-12-16T00:53:14.914Z,29.75
2018-12-16T00:55:42.431Z,30.35
2018-12-16T00:58:10.240Z,30.27
2018-12-16T01:00:37.748Z,31.40
2018-12-16T01:03:05.210Z,31.60
2018-12-16T01:05:32.859Z,31.12
2018-12-16T01:08:00.427Z,30.72
2018-12-16T01:10:27.727Z,31.27
2018-12-16T01:12:55.010Z,32.10
2018-12-16T01:15:22.421Z,31.97
2018-12-16T01:17:49.718Z,32.17
2018-12-16T01:20:17.111Z,32.38
2018-12-16T01:22:44.739Z,32.50
2018-12-16T01:25:12.040Z,33.90
2018-12-16T01:27:39.960Z,32.77
2018-12-16T01:30:07.546Z,32.75
2018-12-16T01:32:35.089Z,31.77
2018-12-16T01:35:02.665Z,30.92
2018-12-16T01:37:30.224Z,32.05
2018-12-16T01:39:58.050Z,33.05
2018-12-16T01:42:25.827Z,33.60
2018-12-16T01:44:53.122Z,32.63
2018-12-16T01:47:20.800Z,33.00
2018-12-16T01:49:48.642Z,34.78
2018-12-16T01:52:15.968Z,33.90
2018-12-16T01:54:43.348Z,35.25
2018-12-16T01:57:11.328Z,33.25
2018-12-16T01:59:38.677Z,33.23
2018-12-16T02:02:07.058Z,33.55
2018-12-16T02:04:34.622Z,34.78
2018-12-16T02:07:02.762Z,35.10
2018-12-16T02:09:30.352Z,33.23
2018-12-16T02:11:57.675Z,31.48
2018-12-16T02:14:25.949Z,37.23
2018-12-16T02:16:53.647Z,34.67
2018-12-16T02:19:20.971Z,35.50
2018-12-16T02:21:48.559Z,35.25
2018-12-16T02:24:16.602Z,34.83
2018-12-16T02:26:44.300Z,34.00
2018-12-16T02:29:11.618Z,36.75
2018-12-16T02:31:39.182Z,36.45
2018-12-16T02:34:06.489Z,36.42
2018-12-16T02:36:33.811Z,37.03
2018-12-16T02:39:01.174Z,37.50
2018-12-16T02:41:28.771Z,38.80
2018-12-16T02:43:56.355Z,37.28
2018-12-16T02:46:23.954Z,36.30
2018-12-16T02:48:51.890Z,37.63
2018-12-16T02:51:19.593Z,38.90
2018-12-16T02:53:47.264Z,36.98
2018-12-16T02:56:15.222Z,37.97
2018-12-16T02:58:43.092Z,39.17
2018-12-16T03:01:11.469Z,39.90
2018-12-16T03:03:38.798Z,40.00
2018-12-16T03:06:06.422Z,40.15
2018-12-16T03:08:33.767Z,37.10
2018-12-16T03:11:01.388Z,39.85
2018-12-16T03:13:29.068Z,38.08
2018-12-16T03:15:56.403Z,42.10
2018-12-16T03:18:24.009Z,41.95
2018-12-16T03:20:51.404Z,39.42
2018-12-16T03:23:18.690Z,39.38
2018-12-16T03:25:46.074Z,40.95
2018-12-16T03:28:13.383Z,41.73
2018-12-16T03:30:41.244Z,40.08
2018-12-16T03:33:09.246Z,41.80
2018-12-16T03:35:36.874Z,40.35
2018-12-16T03:38:04.266Z,41.10
2018-12-16T03:40:31.906Z,42.05
2018-12-16T03:42:59.989Z,40.53
2018-12-16T03:45:27.654Z,42.13
2018-12-16T03:47:55.051Z,43.60
2018-12-16T03:50:22.679Z,41.55
2018-12-16T03:52:50.364Z,40.55
2018-12-16T03:55:17.733Z,41.60
2018-12-16T03:57:45.611Z,42.80
2018-12-16T04:00:13.294Z,42.20
2018-12-16T04:02:40.991Z,40.60
2018-12-16T04:05:08.496Z,42.75
2018-12-16T04:07:36.210Z,44.38
2018-12-16T04:10:03.996Z,42.88
2018-12-16T04:12:31.630Z,43.60
2018-12-16T04:14:58.947Z,42.07
2018-12-16T04:17:26.547Z,42.05
2018-12-16T04:19:54.425Z,42.50
2018-12-16T04:22:22.055Z,42.67
2018-12-16T04:24:50.055Z,45.08
2018-12-16T04:27:17.712Z,42.35
2018-12-16T04:29:45.389Z,41.35
2018-12-16T04:32:12.922Z,43.70
2018-12-16T04:34:40.554Z,44.23
2018-12-16T04:37:07.915Z,40.30
2018-12-16T04:39:35.250Z,43.20
2018-12-16T04:42:02.956Z,41.42
2018-12-16T04:44:30.583Z,40.30
2018-12-16T04:46:57.940Z,40.60
2018-12-16T04:49:25.263Z,43.20
2018-12-16T04:51:52.947Z,44.17
2018-12-16T04:54:20.668Z,39.78
2018-12-16T04:56:48.010Z,43.25
2018-12-16T04:59:15.955Z,40.60
2018-12-16T05:01:43.327Z,39.27
2018-12-16T05:04:11.025Z,38.98
2018-12-16T05:06:38.449Z,39.00
2018-12-16T05:09:07.287Z,41.75
2018-12-16T05:11:34.719Z,39.53
2018-12-16T05:14:02.420Z,42.20
2018-12-16T05:16:29.812Z,39.23
2018-12-16T05:18:57.139Z,40.33
2018-12-16T05:21:24.774Z,40.63
2018-12-16T05:23:52.495Z,40.78
2018-12-16T05:26:20.489Z,39.10
2018-12-16T05:28:48.970Z,39.90
2018-12-16T05:31:16.735Z,39.55
2018-12-16T05:33:44.398Z,39.88
2018-12-16T05:36:11.720Z,38.60
2018-12-16T05:38:39.087Z,40.28
2018-12-16T05:41:06.768Z,41.05
2018-12-16T05:43:34.071Z,40.77
2018-12-16T05:46:01.680Z,40.30
2018-12-16T05:48:29.541Z,41.87
2018-12-16T05:50:57.418Z,41.70
2018-12-16T05:53:25.086Z,39.40
2018-12-16T05:55:52.383Z,39.42
2018-12-16T05:58:19.992Z,40.12
2018-12-16T06:00:47.356Z,36.05
2018-12-16T06:03:14.751Z,35.85
2018-12-16T06:05:42.151Z,35.88
2018-12-16T06:08:09.500Z,34.23
2018-12-16T06:10:37.183Z,33.18
2018-12-16T06:13:04.827Z,35.52
2018-12-16T06:15:32.192Z,31.70
2018-12-16T06:18:00.322Z,31.35
2018-12-16T06:20:28.010Z,32.90
2018-12-16T06:22:55.765Z,35.25
2018-12-16T06:25:23.460Z,31.35
2018-12-16T06:27:51.334Z,32.65
2018-12-16T06:30:20.114Z,33.80
2018-12-16T06:32:47.462Z,31.40
2018-12-16T06:35:15.419Z,33.48
2018-12-16T06:37:42.778Z,31.73
2018-12-16T06:40:10.107Z,32.40
2018-12-16T06:42:37.714Z,41.18
2018-12-16T06:45:05.648Z,33.45
2018-12-16T06:47:33.002Z,32.90
2018-12-16T06:50:00.918Z,32.75
2018-12-16T06:52:28.571Z,33.73
2018-12-16T06:54:55.927Z,32.28
2018-12-16T06:57:23.384Z,31.77
2018-12-16T06:59:50.779Z,30.97
2018-12-16T07:02:18.381Z,33.08
2018-12-16T07:04:45.735Z,30.40
2018-12-16T07:07:13.366Z,32.00
2018-12-16T07:09:40.754Z,34.23
2018-12-16T07:12:08.441Z,29.90
2018-12-16T07:14:35.834Z,29.97
2018-12-16T07:17:04.435Z,27.75
2018-12-16T07:19:32.646Z,29.12
2018-12-16T07:22:00.519Z,27.62
2018-12-16T07:24:27.858Z,23.98
2018-12-16T07:26:55.531Z,23.65
2018-12-16T07:29:22.930Z,23.00
2018-12-16T07:31:50.332Z,20.23
2018-12-16T07:34:18.116Z,19.77
2018-12-16T07:36:45.874Z,20.50
2018-12-16T07:39:14.360Z,18.60
2018-12-16T07:41:42.021Z,22.62
2018-12-16T07:44:10.312Z,17.85
2018-12-16T07:46:37.961Z,17.42
2018-12-16T07:49:05.424Z,15.90
2018-12-16T07:51:33.284Z,16.32
2018-12-16T07:54:00.715Z,35.38
2018-12-16T07:56:28.079Z,17.10
2018-12-16T07:58:55.759Z,16.90
2018-12-16T08:01:23.094Z,17.77
2018-12-16T08:03:51.614Z,16.75
2018-12-16T08:06:18.939Z,15.67
2018-12-16T08:08:46.625Z,16.60
2018-12-16T08:11:13.919Z,16.40
2018-12-16T08:13:41.838Z,14.93
2018-12-16T08:16:09.187Z,16.65
2018-12-16T08:18:36.552Z,14.30
2018-12-16T08:21:04.231Z,14.70
2018-12-16T08:23:31.525Z,15.58
2018-12-16T08:25:59.006Z,15.53
2018-12-16T08:28:26.331Z,13.62
2018-12-16T08:30:53.795Z,16.00
2018-12-16T08:33:21.500Z,14.87
2018-12-16T08:35:48.870Z,15.60
2018-12-16T08:38:16.170Z,14.18
2018-12-16T08:40:43.730Z,14.43
2018-12-16T08:43:11.605Z,15.68
2018-12-16T08:45:38.912Z,14.18
2018-12-16T08:48:06.264Z,14.53
2018-12-16T08:50:33.868Z,14.68
2018-12-16T08:53:01.571Z,14.18
2018-12-16T08:55:28.908Z,14.10
2018-12-16T08:57:56.301Z,14.17
2018-12-16T09:00:23.655Z,15.18
2018-12-16T09:02:50.995Z,15.20
2018-12-16T09:05:19.380Z,15.00
2018-12-16T09:07:46.703Z,14.85
2018-12-16T09:10:14.391Z,15.63
2018-12-16T09:12:41.759Z,15.32
2018-12-16T09:15:09.822Z,14.63
2018-12-16T09:17:37.575Z,15.60
2018-12-16T09:20:05.492Z,15.03
2018-12-16T09:22:33.117Z,14.57
2018-12-16T09:25:00.779Z,15.48
2018-12-16T09:27:28.444Z,14.90
2018-12-16T09:29:56.042Z,18.37
2018-12-16T09:32:23.765Z,17.10
2018-12-16T09:34:51.640Z,15.58
2018-12-16T09:37:19.805Z,16.80
2018-12-16T09:39:47.672Z,17.75
2018-12-16T09:42:15.646Z,17.15
2018-12-16T09:44:43.509Z,17.37
2018-12-16T09:47:11.095Z,15.70
2018-12-16T09:49:38.628Z,17.05
2018-12-16T09:52:06.003Z,17.75
2018-12-16T09:54:33.647Z,16.80
2018-12-16T09:57:01.178Z,17.62
2018-12-16T09:59:28.524Z,16.10
2018-12-16T10:01:56.123Z,16.70
2018-12-16T10:04:23.792Z,17.77
2018-12-16T10:06:51.432Z,18.50
2018-12-16T10:09:19.521Z,17.85
2018-12-16T10:11:47.476Z,19.05
2018-12-16T10:14:15.674Z,18.57
2018-12-16T10:16:43.521Z,17.57
2018-12-16T10:19:11.447Z,18.85
2018-12-16T10:21:40.517Z,20.05
2018-12-16T10:24:08.484Z,18.05
2018-12-16T10:26:36.196Z,19.00
2018-12-16T10:29:03.851Z,19.73
2018-12-16T10:31:32.199Z,18.97
2018-12-16T10:34:00.132Z,18.82
2018-12-16T10:36:28.723Z,19.35
2018-12-16T10:38:56.568Z,18.10
2018-12-16T10:41:24.745Z,19.92
2018-12-16T10:43:52.808Z,18.82
2018-12-16T10:46:20.550Z,20.25
2018-12-16T10:49:04.683Z,17.63
2018-12-16T10:51:40.400Z,17.77
2018-12-16T10:54:23.459Z,16.77
2018-12-16T10:56:51.305Z,19.80
2018-12-16T10:59:19.432Z,18.57
2018-12-16T11:01:47.543Z,19.90
2018-12-16T11:04:15.763Z,18.82
2018-12-16T11:06:44.127Z,17.15
2018-12-16T11:09:12.301Z,20.37
2018-12-16T11:11:40.350Z,18.55
2018-12-16T11:14:08.947Z,18.10
2018-12-16T11:16:36.964Z,17.48
2018-12-16T11:19:05.199Z,18.05
2018-12-16T11:21:33.310Z,19.07
2018-12-16T11:24:02.068Z,20.80
2018-12-16T11:26:31.326Z,19.57
2018-12-16T11:28:59.450Z,20.15
2018-12-16T11:32:21.270Z,18.50
2018-12-16T11:34:49.682Z,16.62
2018-12-16T11:37:18.488Z,20.37
2018-12-16T11:39:46.190Z,20.20
2018-12-16T11:42:14.498Z,22.90
2018-12-16T11:44:42.707Z,20.55
2018-12-16T11:47:10.991Z,18.57
2018-12-16T11:49:39.243Z,19.32
2018-12-16T11:52:07.696Z,22.58
2018-12-16T11:54:35.776Z,19.40
2018-12-16T11:57:04.643Z,19.15
2018-12-16T11:59:32.977Z,18.40
2018-12-16T12:02:02.225Z,18.07
2018-12-16T12:04:32.004Z,26.62
2018-12-16T12:07:00.659Z,19.82
2018-12-16T12:09:28.953Z,19.77
2018-12-16T12:11:57.029Z,20.37
2018-12-16T12:14:25.210Z,19.87
2018-12-16T12:16:53.177Z,18.40
2018-12-16T12:19:21.067Z,18.12
2018-12-16T12:21:48.842Z,19.40
2018-12-16T12:24:16.464Z,16.10
2018-12-16T12:26:44.855Z,18.62
2018-12-16T12:29:12.809Z,18.35
2018-12-16T12:31:41.207Z,18.50
2018-12-16T12:34:10.492Z,17.32
2018-12-16T12:36:39.328Z,17.05
2018-12-16T12:39:08.006Z,16.35
2018-12-16T12:41:35.800Z,19.17
2018-12-16T12:44:03.687Z,18.62
2018-12-16T12:46:31.393Z,18.15
2018-12-16T12:48:59.349Z,19.25
2018-12-16T12:51:27.589Z,21.85
2018-12-16T12:53:55.689Z,18.90
2018-12-16T12:56:23.472Z,20.85
2018-12-16T12:58:51.422Z,18.70
2018-12-16T13:01:18.985Z,19.30
2018-12-16T13:03:46.884Z,18.62
2018-12-16T13:06:15.068Z,18.32
2018-12-16T13:08:43.625Z,19.67
2018-12-16T13:11:11.669Z,19.67
2018-12-16T13:13:39.629Z,19.25
2018-12-16T13:16:08.313Z,20.20
2018-12-16T13:18:35.884Z,20.52
2018-12-16T13:22:50.370Z,19.23
2018-12-16T13:25:23.562Z,19.20
2018-12-16T13:27:51.488Z,19.45
2018-12-16T13:30:19.143Z,19.80
2018-12-16T13:32:47.035Z,20.27
2018-12-16T13:38:10.384Z,21.10
2018-12-16T13:40:38.928Z,21.23
2018-12-16T13:43:06.672Z,22.30
2018-12-16T13:45:34.999Z,21.27
2018-12-16T13:48:02.676Z,20.23
2018-12-16T13:50:31.127Z,22.15
2018-12-16T13:52:59.223Z,22.65
2018-12-16T13:55:27.018Z,23.42
2018-12-16T13:57:55.179Z,23.60
2018-12-16T14:00:23.622Z,22.77
2018-12-16T14:02:52.395Z,24.12
2018-12-16T14:05:20.649Z,23.52
2018-12-16T14:07:49.567Z,23.00
2018-12-16T14:10:18.155Z,25.10
2018-12-16T14:12:46.798Z,23.05
2018-12-16T14:15:15.570Z,23.85
2018-12-16T14:17:45.659Z,23.75
2018-12-16T14:20:14.271Z,22.22
2018-12-16T14:22:42.505Z,22.98
2018-12-16T14:25:10.847Z,23.22
2018-12-16T14:27:39.010Z,23.80
2018-12-16T14:30:08.372Z,24.13
2018-12-16T14:32:36.963Z,22.70
2018-12-16T14:35:05.207Z,25.62
2018-12-16T14:37:33.708Z,25.85
2018-12-16T14:40:01.754Z,23.60
2018-12-16T14:42:30.556Z,27.17
2018-12-16T14:44:59.022Z,26.85
2018-12-16T14:47:26.958Z,25.55
2018-12-16T14:49:56.361Z,24.20
2018-12-16T14:52:25.605Z,25.43
2018-12-16T14:54:53.391Z,26.80
2018-12-16T14:57:21.268Z,25.27
2018-12-16T14:59:49.063Z,25.95
2018-12-16T15:02:16.806Z,27.20
2018-12-16T15:04:44.184Z,27.37
2018-12-16T15:07:11.805Z,26.97
2018-12-16T15:09:39.156Z,23.67
2018-12-16T15:12:06.488Z,25.87
2018-12-16T15:14:34.176Z,24.02
2018-12-16T15:17:01.842Z,23.83
2018-12-16T15:19:29.256Z,25.75
2018-12-16T15:21:56.898Z,27.50
2018-12-16T15:24:24.591Z,24.67
2018-12-16T15:26:52.728Z,25.52
2018-12-16T15:29:20.268Z,23.75
2018-12-16T15:31:47.575Z,25.00
2018-12-16T15:34:15.277Z,26.17
2018-12-16T15:36:42.630Z,26.33
2018-12-16T15:39:13.795Z,28.75
2018-12-16T15:41:42.514Z,24.32
2018-12-16T15:44:09.966Z,24.37
2018-12-16T15:46:37.779Z,24.30
2018-12-16T15:49:05.441Z,24.05
2018-12-16T15:51:33.155Z,23.42
2018-12-16T15:54:00.956Z,27.00
2018-12-16T15:56:28.344Z,27.22
2018-12-16T15:58:56.504Z,24.77
2018-12-16T16:01:24.148Z,25.08
2018-12-16T16:03:51.844Z,27.35
2018-12-16T16:06:19.905Z,23.73
2018-12-16T16:08:47.495Z,23.53
2018-12-16T16:11:15.119Z,23.38
2018-12-16T16:13:42.990Z,22.55
2018-12-16T16:16:10.370Z,22.87
2018-12-16T16:18:37.888Z,23.83
2018-12-16T16:21:05.572Z,22.45
2018-12-16T16:23:33.519Z,23.30
2018-12-16T16:26:01.264Z,22.27
2018-12-16T16:28:28.659Z,22.90
2018-12-16T16:30:56.637Z,24.18
2018-12-16T16:33:24.591Z,26.57
2018-12-16T16:35:52.466Z,26.10
2018-12-16T16:38:19.931Z,43.20
2018-12-16T16:40:47.680Z,59.50
2018-12-16T16:43:15.218Z,50.20
2018-12-16T16:45:43.423Z,75.17
2018-12-16T16:48:11.399Z,53.92
2018-12-16T16:52:56.139Z,25.90
2018-12-16T16:55:24.518Z,22.82
2018-12-16T16:57:52.722Z,23.20
2018-12-16T17:00:20.409Z,21.57
2018-12-16T17:02:48.048Z,22.32
2018-12-16T17:05:15.409Z,22.55
2018-12-16T17:07:42.808Z,23.07
2018-12-16T17:10:11.032Z,21.27
2018-12-16T17:12:38.432Z,22.62
2018-12-16T17:15:06.471Z,23.35
2018-12-16T17:17:33.816Z,21.05
2018-12-16T17:20:01.152Z,22.02
2018-12-16T17:22:28.518Z,21.23
2018-12-16T17:24:56.114Z,22.00
2018-12-16T17:27:23.759Z,20.92
2018-12-16T17:29:51.818Z,21.13
2018-12-16T17:32:19.198Z,20.95
2018-12-16T17:34:46.859Z,22.22
2018-12-16T17:37:14.508Z,21.23
2018-12-16T17:39:42.184Z,21.40
2018-12-16T17:42:10.855Z,22.35
2018-12-16T17:44:38.196Z,21.52
2018-12-16T17:47:05.568Z,20.30
2018-12-16T17:49:32.875Z,22.52
2018-12-16T17:52:00.175Z,27.90
2018-12-16T17:54:27.836Z,31.48
2018-12-16T17:56:55.265Z,28.02
2018-12-16T17:59:22.680Z,22.65
2018-12-16T18:01:50.920Z,21.17
2018-12-16T18:04:18.583Z,21.20
2018-12-16T18:06:46.887Z,21.52
2018-12-16T18:09:14.527Z,21.90
2018-12-16T18:11:41.957Z,30.05
2018-12-16T18:14:10.159Z,24.45
2018-12-16T18:16:37.509Z,30.30
2018-12-16T18:19:05.481Z,26.80
2018-12-16T18:21:32.860Z,22.50
2018-12-16T18:24:00.603Z,23.75
2018-12-16T18:26:28.256Z,21.20
2018-12-16T18:28:55.918Z,20.80
2018-12-16T18:31:23.268Z,21.57
2018-12-16T18:33:50.953Z,36.98
2018-12-16T18:36:18.609Z,26.55
2018-12-16T18:38:46.169Z,20.70
2018-12-16T18:41:13.836Z,20.97
2018-12-16T18:43:41.209Z,21.17
2018-12-16T18:46:09.277Z,21.87
2018-12-16T18:48:37.031Z,23.73
2018-12-16T18:51:04.629Z,21.27
2018-12-16T18:53:31.936Z,20.87
2018-12-16T18:55:59.987Z,20.65
2018-12-16T18:58:27.849Z,18.95
2018-12-16T19:00:55.429Z,20.70
2018-12-16T19:03:22.893Z,21.37
2018-12-16T19:05:50.772Z,20.20
2018-12-16T19:08:18.391Z,20.45
2018-12-16T19:10:46.091Z,19.07
2018-12-16T19:13:13.789Z,20.75
2018-12-16T19:15:41.122Z,20.72
2018-12-16T19:18:08.732Z,20.43
2018-12-16T19:20:36.357Z,19.85
2018-12-16T19:23:03.646Z,20.60
2018-12-16T19:25:31.206Z,22.20
2018-12-16T19:27:58.774Z,22.32
2018-12-16T19:30:26.370Z,19.63
2018-12-16T19:32:53.703Z,19.15
2018-12-16T19:35:21.264Z,20.60
2018-12-16T19:37:49.249Z,21.07
2018-12-16T19:40:16.587Z,20.70
2018-12-16T19:42:43.908Z,19.80
2018-12-16T19:45:11.211Z,20.80
2018-12-16T19:47:38.531Z,21.05
2018-12-16T19:50:06.620Z,20.75
2018-12-16T19:52:34.332Z,21.15
2018-12-16T19:55:02.132Z,19.87
2018-12-16T19:57:30.338Z,20.30
2018-12-16T19:59:57.700Z,34.18
2018-12-16T20:02:25.319Z,24.23
2018-12-16T20:04:58.818Z,18.90
2018-12-16T20:07:26.116Z,20.95
2018-12-16T20:09:53.780Z,19.12
2018-12-16T20:12:21.744Z,19.43
2018-12-16T20:14:49.414Z,18.70
2018-12-16T20:17:19.264Z,19.37
2018-12-16T20:19:46.847Z,21.10
2018-12-16T20:22:14.452Z,18.52
2018-12-16T20:24:41.807Z,17.75
2018-12-16T20:27:12.120Z,18.80
2018-12-16T20:29:38.560Z,18.45
2018-12-16T20:32:06.114Z,18.00
2018-12-16T20:34:33.432Z,19.27
2018-12-16T20:37:00.775Z,18.23
2018-12-16T20:39:28.138Z,16.60
2018-12-16T20:41:55.739Z,18.90
2018-12-16T20:44:23.023Z,18.15
2018-12-16T20:46:50.980Z,18.40
2018-12-16T20:49:18.700Z,19.87
2018-12-16T20:51:46.349Z,20.12
2018-12-16T20:54:14.177Z,18.80
2018-12-16T20:56:42.061Z,18.48
2018-12-16T20:59:09.792Z,17.45
2018-12-16T21:01:37.522Z,18.77
2018-12-16T21:04:05.086Z,19.47
2018-12-16T21:06:32.793Z,18.57
2018-12-16T21:09:00.679Z,18.30
2018-12-16T21:11:33.422Z,19.65
2018-12-16T21:14:06.624Z,18.13
2018-12-16T21:16:39.448Z,19.50
2018-12-16T21:19:06.881Z,20.27
2018-12-16T21:21:34.751Z,18.12
2018-12-16T21:24:02.894Z,18.27
2018-12-16T21:26:30.501Z,17.27
2018-12-16T21:28:57.852Z,19.10
2018-12-16T21:31:25.398Z,18.98
2018-12-16T21:33:53.089Z,19.62
2018-12-16T21:36:20.664Z,18.47
2018-12-16T21:38:47.993Z,16.93
2018-12-16T21:41:15.369Z,20.87
2018-12-16T21:45:43.927Z,18.82
2018-12-16T21:48:11.576Z,18.05
2018-12-16T21:50:39.200Z,18.27
2018-12-16T21:53:06.507Z,17.75
2018-12-16T21:55:33.879Z,18.80
2018-12-16T21:58:01.309Z,18.05
2018-12-16T22:00:28.629Z,19.07
2018-12-16T22:02:56.374Z,18.52
2018-12-16T22:05:32.492Z,18.85
2018-12-16T22:08:00.676Z,19.82
2018-12-16T22:10:28.080Z,18.48
2018-12-16T22:12:55.886Z,18.00
2018-12-16T22:15:23.161Z,19.60
2018-12-16T22:17:50.737Z,20.12
2018-12-16T22:20:18.047Z,19.95
2018-12-16T22:22:45.359Z,19.90
2018-12-16T22:25:12.646Z,20.32
2018-12-16T22:27:40.300Z,18.98
2018-12-16T22:30:08.903Z,20.45
2018-12-16T22:32:36.222Z,20.57
2018-12-16T22:35:03.670Z,21.02
2018-12-16T22:37:31.581Z,20.60
2018-12-16T22:39:59.263Z,19.27
2018-12-16T22:42:26.904Z,20.00
2018-12-16T22:44:54.535Z,20.32
2018-12-16T22:47:22.747Z,21.05
2018-12-16T22:49:50.096Z,21.40
2018-12-16T22:52:18.174Z,19.65
2018-12-16T22:54:46.051Z,19.92
2018-12-16T22:57:14.007Z,19.77
2018-12-16T22:59:45.721Z,19.45
2018-12-16T23:02:13.152Z,18.80
2018-12-16T23:04:40.477Z,19.95
2018-12-16T23:07:08.030Z,19.85
2018-12-16T23:09:35.700Z,19.27
2018-12-16T23:12:03.392Z,19.75
2018-12-16T23:14:31.326Z,20.32
2018-12-16T23:16:58.992Z,19.12
2018-12-16T23:19:26.552Z,19.90
2018-12-16T23:21:54.211Z,18.65
2018-12-16T23:24:22.179Z,18.75
2018-12-16T23:26:49.844Z,19.00
2018-12-16T23:29:17.150Z,20.30
2018-12-16T23:31:46.151Z,22.15
2018-12-16T23:34:13.442Z,19.27
2018-12-16T23:36:41.091Z,20.37
2018-12-16T23:39:09.712Z,19.62
2018-12-16T23:41:37.072Z,20.00
2018-12-16T23:44:04.713Z,20.10
2018-12-16T23:46:32.667Z,21.55
2018-12-16T23:49:00.027Z,21.15
2018-12-16T23:51:27.866Z,20.75
2018-12-16T23:53:55.521Z,20.62
2018-12-16T23:56:23.430Z,18.57
2018-12-16T23:58:50.842Z,19.62
